Time;durP1;ratioP1;P1;durP2;ratioP2;P2;SDS_P1;SDS_P2;PMS_P1;PMS_P2;Temp;Humidity;BMP_temperature;BMP_pressure;BME280_temperature;BME280_humidity;BME280_pressure;Samples;Min_cycle;Max_cycle;Signal;HPM_P1;HPM_P2
2024/01/16 00:03:58;;;;;;;4.20;0.70;;;;;;;18.74;29.80;100977.59;16112495;19;130827;-66
2024/01/16 00:09:20;;;;;;;2.60;0.90;;;;;;;18.70;29.78;100977.25;16119608;19;129973;-66
2024/01/16 00:14:42;;;;;;;1.83;0.63;;;;;;;18.67;30.18;100972.19;16124055;19;129479;-67
2024/01/16 00:20:05;;;;;;;1.20;0.50;;;;;;;18.63;30.08;100979.31;16126737;19;130663;-66
2024/01/16 00:25:27;;;;;;;2.05;0.73;;;;;;;18.57;30.25;100967.28;16127217;19;131445;-66
2024/01/16 00:30:49;;;;;;;2.63;0.70;;;;;;;18.53;29.95;100976.31;16137607;19;130747;-66
2024/01/16 00:36:11;;;;;;;1.42;0.65;;;;;;;18.51;30.02;100986.81;16143489;19;131563;-66
2024/01/16 00:41:33;;;;;;;2.50;0.80;;;;;;;18.49;29.84;100984.28;16139290;19;130621;-67
2024/01/16 00:46:54;;;;;;;3.10;0.90;;;;;;;18.45;29.95;100992.25;16131038;19;131489;-66
2024/01/16 00:52:16;;;;;;;2.65;0.95;;;;;;;18.41;29.82;100991.03;16128748;19;129613;-67
2024/01/16 00:57:38;;;;;;;1.95;0.60;;;;;;;18.37;30.18;100995.34;16133791;19;130953;-66
2024/01/16 01:03:01;;;;;;;1.75;0.65;;;;;;;18.34;29.96;101000.53;16139869;19;131429;-67
2024/01/16 01:08:23;;;;;;;1.83;0.80;;;;;;;18.30;29.94;100997.41;16139348;19;130430;-67
2024/01/16 01:13:45;;;;;;;2.72;0.68;;;;;;;18.27;30.26;101000.66;16131947;19;130212;-66
2024/01/16 01:19:07;;;;;;;1.58;0.75;;;;;;;18.23;30.31;100993.91;16139246;19;129732;-67
2024/01/16 01:24:29;;;;;;;2.65;0.80;;;;;;;18.19;30.44;100988.00;16137685;19;130734;-67
2024/01/16 01:29:51;;;;;;;1.52;0.77;;;;;;;18.18;30.06;100996.56;16133638;19;129540;-67
2024/01/16 01:35:14;;;;;;;4.10;0.82;;;;;;;18.15;30.28;100987.66;16133100;19;130529;-66
2024/01/16 01:40:36;;;;;;;2.25;0.80;;;;;;;18.11;30.57;100980.91;16116065;19;131069;-67
2024/01/16 01:46:04;;;;;;;2.45;0.85;;;;;;;18.10;30.21;100983.94;16114953;19;130406;-66
2024/01/16 01:51:26;;;;;;;1.58;0.50;;;;;;;18.06;30.60;100993.78;16118777;19;131445;-66
2024/01/16 01:56:49;;;;;;;2.50;0.60;;;;;;;18.03;30.26;100989.59;16117948;19;129980;-66
2024/01/16 02:02:11;;;;;;;3.45;0.50;;;;;;;18.00;30.73;100984.53;16115825;19;129598;-65
2024/01/16 02:07:34;;;;;;;1.25;0.50;;;;;;;17.96;30.35;100994.41;16119878;19;129727;-67
2024/01/16 02:12:57;;;;;;;1.30;0.60;;;;;;;17.95;30.40;100992.72;16119205;19;131914;-66
2024/01/16 02:18:19;;;;;;;0.80;0.50;;;;;;;17.91;30.81;100991.50;16119017;19;129455;-68
2024/01/16 02:23:41;;;;;;;1.98;0.52;;;;;;;17.85;30.90;100991.38;16116612;19;129320;-67
2024/01/16 02:29:06;;;;;;;1.42;0.45;;;;;;;17.84;30.54;100989.72;16113280;19;130557;-67
2024/01/16 02:34:28;;;;;;;0.50;0.37;;;;;;;17.82;30.74;100983.56;16118275;19;129810;-67
2024/01/16 02:39:50;;;;;;;1.00;0.50;;;;;;;17.81;30.68;100992.97;16115310;19;129707;-67
2024/01/16 02:45:13;;;;;;;1.23;0.50;;;;;;;17.79;30.72;100984.06;16118191;19;129903;-67
2024/01/16 02:50:35;;;;;;;0.40;0.28;;;;;;;17.76;30.51;100978.97;16111353;19;129783;-67
2024/01/16 02:56:00;;;;;;;1.40;0.50;;;;;;;17.74;30.93;100975.59;16117822;19;130162;-67
2024/01/16 03:01:22;;;;;;;1.17;0.50;;;;;;;17.72;30.89;100982.47;16115736;19;129473;-66
2024/01/16 03:06:44;;;;;;;0.57;0.30;;;;;;;17.72;30.50;100985.25;16114540;19;130771;-66
2024/01/16 03:12:07;;;;;;;1.23;0.40;;;;;;;17.69;30.88;100983.81;16113876;19;131100;-66
2024/01/16 03:17:28;;;;;;;1.35;0.43;;;;;;;17.66;30.46;100976.78;16108023;19;131761;-67
2024/01/16 03:22:51;;;;;;;1.45;0.40;;;;;;;17.65;30.64;100971.50;16112671;19;129718;-66
2024/01/16 03:28:13;;;;;;;0.60;0.32;;;;;;;17.63;30.89;100970.91;16111666;19;129246;-67
2024/01/16 03:33:35;;;;;;;1.63;0.65;;;;;;;17.60;30.80;100957.56;16110605;19;129917;-67
2024/01/16 03:38:57;;;;;;;0.88;0.40;;;;;;;17.58;30.59;100959.72;16118681;19;131019;-67
2024/01/16 03:44:19;;;;;;;1.30;0.35;;;;;;;17.56;30.74;100970.19;16132866;19;130599;-70
2024/01/16 03:49:44;;;;;;;1.23;0.40;;;;;;;17.54;30.54;100959.31;16123674;19;130541;-68
2024/01/16 03:55:06;;;;;;;0.50;0.40;;;;;;;17.52;30.63;100956.78;16128202;19;129730;-68
2024/01/16 04:00:28;;;;;;;0.80;0.30;;;;;;;17.51;30.81;100954.28;16122962;19;131045;-66
2024/01/16 04:05:53;;;;;;;0.77;0.47;;;;;;;17.48;30.79;100949.22;16125847;19;130956;-66
2024/01/16 04:11:15;;;;;;;0.70;0.47;;;;;;;17.47;30.67;100934.56;16124599;19;129908;-67
2024/01/16 04:16:37;;;;;;;1.02;0.40;;;;;;;17.45;30.90;100936.72;16126388;19;130426;-67
2024/01/16 04:22:00;;;;;;;1.23;0.50;;;;;;;17.44;30.95;100932.25;16125562;19;130307;-67
2024/01/16 04:27:22;;;;;;;0.55;0.30;;;;;;;17.41;30.94;100929.97;16121133;19;135155;-67
2024/01/16 04:32:44;;;;;;;0.80;0.43;;;;;;;17.39;30.96;100930.22;16120742;19;131452;-67
2024/01/16 04:38:07;;;;;;;2.05;0.55;;;;;;;17.37;30.62;100920.44;16123303;19;130717;-67
2024/01/16 04:43:29;;;;;;;0.95;0.40;;;;;;;17.36;30.61;100924.28;16124869;19;130320;-67
2024/01/16 04:48:51;;;;;;;1.13;0.52;;;;;;;17.33;30.66;100919.25;16117648;19;130217;-65
2024/01/16 04:54:13;;;;;;;0.90;0.43;;;;;;;17.31;30.64;100911.19;16122561;19;129661;-66
2024/01/16 04:59:35;;;;;;;1.13;0.40;;;;;;;17.30;30.58;100914.19;16121064;19;130925;-67
2024/01/16 05:04:57;;;;;;;0.68;0.47;;;;;;;17.26;30.71;100904.69;16118856;19;129671;-66
2024/01/16 05:10:19;;;;;;;1.17;0.52;;;;;;;17.25;30.75;100903.84;16118619;19;130033;-67
2024/01/16 05:15:42;;;;;;;1.08;0.40;;;;;;;17.23;30.83;100906.84;16116663;19;131486;-66
2024/01/16 05:21:04;;;;;;;1.42;0.55;;;;;;;17.23;30.92;100903.25;16121437;19;130629;-67
2024/01/16 05:26:26;;;;;;;2.65;0.50;;;;;;;17.21;30.63;100906.25;16120428;19;130976;-67
2024/01/16 05:31:48;;;;;;;2.65;0.40;;;;;;;17.18;30.69;100901.19;16116360;19;131324;-66
2024/01/16 05:37:10;;;;;;;1.00;0.50;;;;;;;17.18;30.70;100890.13;16120351;19;131778;-66
2024/01/16 05:42:32;;;;;;;0.95;0.45;;;;;;;17.15;30.67;100887.84;16120326;19;130054;-65
2024/01/16 05:47:55;;;;;;;1.02;0.43;;;;;;;17.15;30.61;100895.31;16117589;19;130863;-66
2024/01/16 05:53:17;;;;;;;1.17;0.50;;;;;;;17.17;30.82;100888.44;16113858;19;130659;-68
2024/01/16 05:58:39;;;;;;;1.58;0.45;;;;;;;17.18;30.97;100889.28;16116677;19;129460;-66
2024/01/16 06:04:01;;;;;;;1.10;0.60;;;;;;;17.19;30.97;100890.97;16114084;19;130080;-67
2024/01/16 06:09:23;;;;;;;1.50;0.50;;;;;;;17.25;30.79;100892.78;16116420;19;130847;-66
2024/01/16 06:14:45;;;;;;;1.95;0.57;;;;;;;17.44;30.66;100885.25;16113783;19;129460;-69
2024/01/16 06:20:07;;;;;;;1.98;0.40;;;;;;;17.69;30.62;100881.44;16121274;19;129647;-76
2024/01/16 06:25:29;;;;;;;4.82;0.80;;;;;;;17.96;30.20;100889.22;16128447;19;129577;-74
2024/01/16 06:30:51;;;;;;;3.60;0.80;;;;;;;18.23;29.96;100885.91;16119215;19;130114;-70
2024/01/16 06:36:13;;;;;;;4.00;0.80;;;;;;;18.55;29.73;100885.50;16119028;19;130404;-70
2024/01/16 06:41:35;;;;;;;6.10;0.70;;;;;;;18.90;29.62;100887.25;16116423;19;130079;-69
2024/01/16 06:46:57;;;;;;;1.00;0.65;;;;;;;19.25;28.88;100888.19;16114521;19;130923;-70
2024/01/16 06:52:19;;;;;;;2.85;0.88;;;;;;;19.43;28.85;100892.63;16110635;19;131515;-69
2024/01/16 06:57:41;;;;;;;2.70;0.80;;;;;;;19.46;28.71;100892.09;16115408;19;131636;-70
2024/01/16 07:03:03;;;;;;;2.05;0.82;;;;;;;19.45;28.63;100887.66;16113580;19;129830;-70
2024/01/16 07:08:25;;;;;;;3.35;0.60;;;;;;;19.41;28.75;100892.03;16114651;19;130499;-69
2024/01/16 07:13:48;;;;;;;3.30;0.63;;;;;;;19.36;28.74;100896.41;16104854;19;136054;-69
2024/01/16 07:19:10;;;;;;;2.40;1.05;;;;;;;19.30;28.86;100893.81;16107433;19;131517;-69
2024/01/16 07:24:32;;;;;;;2.55;0.70;;;;;;;19.20;28.75;100898.06;16105967;19;129949;-69
2024/01/16 07:29:57;;;;;;;1.00;0.55;;;;;;;19.14;28.67;100904.59;16108675;19;131224;-69
2024/01/16 07:35:20;;;;;;;3.40;0.90;;;;;;;19.06;28.94;100902.25;16111392;19;131484;-69
2024/01/16 07:40:41;;;;;;;1.52;0.55;;;;;;;19.00;28.75;100898.53;16112014;19;131724;-69
2024/01/16 07:46:03;;;;;;;1.52;0.50;;;;;;;18.98;28.93;100911.78;16108361;19;130130;-70
2024/01/16 07:51:25;;;;;;;1.67;0.57;;;;;;;19.01;28.69;100916.84;16108091;19;131308;-69
2024/01/16 07:56:47;;;;;;;3.20;0.65;;;;;;;19.10;28.88;100913.66;16107131;19;133876;-70
2024/01/16 08:02:09;;;;;;;4.13;1.08;;;;;;;19.20;28.79;100924.97;16110172;19;129364;-70
2024/01/16 08:07:31;;;;;;;1.70;0.80;;;;;;;19.31;28.66;100926.84;16106008;19;129431;-70
2024/01/16 08:12:53;;;;;;;3.22;0.93;;;;;;;19.44;28.25;100935.94;16110304;19;129702;-68
2024/01/16 08:18:17;;;;;;;1.15;0.50;;;;;;;19.53;28.32;100934.41;16107493;19;129597;-67
2024/01/16 08:23:39;;;;;;;1.45;0.70;;;;;;;19.65;28.10;100950.97;16111615;19;130317;-68
2024/01/16 08:29:01;;;;;;;2.00;0.68;;;;;;;19.76;28.28;100960.31;16122333;19;130247;-67
2024/01/16 08:34:23;;;;;;;2.30;0.70;;;;;;;19.81;27.90;100971.50;16123513;19;129648;-68
2024/01/16 08:39:45;;;;;;;1.65;0.65;;;;;;;19.81;27.84;100965.97;16124814;19;130492;-68
2024/01/16 08:45:07;;;;;;;2.22;0.60;;;;;;;19.78;28.12;100958.13;16124568;19;129757;-67
2024/01/16 08:50:29;;;;;;;1.85;0.70;;;;;;;19.73;28.23;100949.72;16119354;19;131784;-67
2024/01/16 08:55:51;;;;;;;2.28;0.60;;;;;;;19.64;28.26;100940.97;16120356;19;130910;-67
2024/01/16 09:01:13;;;;;;;5.50;0.98;;;;;;;19.53;28.29;100939.97;16120390;19;131775;-67
2024/01/16 09:06:35;;;;;;;3.35;0.80;;;;;;;19.42;28.06;100932.56;16118524;19;132471;-67
2024/01/16 09:11:58;;;;;;;2.38;1.10;;;;;;;19.31;28.30;100932.41;16114937;19;130625;-67
2024/01/16 09:23:43;;;;;;;1.85;1.00;;;;;;;19.12;28.05;100922.56;16146534;19;129428;-67
2024/01/16 09:29:07;;;;;;;1.88;0.90;;;;;;;19.06;28.37;100925.28;16117495;19;129628;-71
2024/01/16 09:34:29;;;;;;;1.77;1.00;;;;;;;19.01;28.50;100916.84;16110744;19;130039;-69
2024/01/16 09:39:53;;;;;;;1.90;0.85;;;;;;;18.97;28.38;100915.66;16121015;19;130368;-69
2024/01/16 09:45:20;;;;;;;3.00;0.98;;;;;;;18.91;28.32;100905.56;16117247;19;130542;-69
2024/01/16 09:50:42;;;;;;;5.18;1.20;;;;;;;18.86;28.55;100908.25;16116449;19;129556;-70
2024/01/16 09:56:10;;;;;;;1.85;0.80;;;;;;;18.84;28.87;100899.34;16118783;19;130527;-70
2024/01/16 10:01:33;;;;;;;5.10;1.00;;;;;;;18.94;28.65;100904.22;16118238;19;130250;-74
2024/01/16 10:06:57;;;;;;;2.33;1.10;;;;;;;19.05;28.35;100901.41;16120097;19;129024;-73
2024/01/16 10:12:22;;;;;;;2.47;1.20;;;;;;;19.21;28.29;100893.38;16112816;19;132177;-70
2024/01/16 10:17:44;;;;;;;1.65;0.77;;;;;;;19.36;28.61;100890.84;16117208;19;130390;-70
2024/01/16 10:23:06;;;;;;;7.47;0.80;;;;;;;19.52;28.17;100899.44;16114906;19;129657;-70
2024/01/16 10:28:28;;;;;;;5.13;0.80;;;;;;;19.67;28.09;100885.81;16113514;19;131728;-69
2024/01/16 10:33:50;;;;;;;3.13;0.85;;;;;;;19.81;27.83;100885.44;16113573;19;131833;-72
2024/01/16 10:39:13;;;;;;;2.42;0.93;;;;;;;19.89;28.22;100882.22;16117623;19;130398;-71
2024/01/16 10:44:37;;;;;;;2.15;0.80;;;;;;;19.94;28.02;100885.06;16115417;19;129780;-70
2024/01/16 10:50:01;;;;;;;2.17;0.70;;;;;;;19.95;28.09;100872.84;16111935;19;130356;-69
2024/01/16 10:55:24;;;;;;;2.03;0.60;;;;;;;19.89;28.24;100862.78;16104662;19;131256;-70
2024/01/16 11:00:50;;;;;;;2.67;0.98;;;;;;;19.83;28.08;100852.69;16112602;19;129915;-70
2024/01/16 11:06:15;;;;;;;2.97;1.40;;;;;;;19.68;27.39;100843.09;16112357;19;130156;-70
2024/01/16 11:11:39;;;;;;;4.53;1.23;;;;;;;19.56;27.31;100847.91;16107843;19;130286;-70
2024/01/16 11:17:03;;;;;;;3.92;1.27;;;;;;;19.52;27.50;100838.41;16110811;19;129631;-70
2024/01/16 11:22:28;;;;;;;3.72;1.23;;;;;;;19.45;27.27;100840.50;16110882;19;131677;-69
2024/01/16 11:27:52;;;;;;;7.00;0.90;;;;;;;19.38;27.80;100830.41;16109358;19;129637;-69
2024/01/16 11:33:32;;;;;;;3.25;1.15;;;;;;;19.34;27.59;100842.28;16104931;19;131594;-69
2024/01/16 11:38:58;;;;;;;3.50;1.23;;;;;;;19.26;27.79;100821.34;16099871;19;131389;-70
2024/01/16 11:44:50;;;;;;;2.05;1.10;;;;;;;19.20;27.63;100825.94;16102785;19;131109;-68
2024/01/16 11:50:27;;;;;;;5.20;1.58;;;;;;;19.14;28.26;100831.66;16104486;19;130510;-69
2024/01/16 11:55:52;;;;;;;3.85;1.33;;;;;;;19.05;27.86;100829.31;16105771;19;131447;-68
2024/01/16 12:01:16;;;;;;;5.90;1.77;;;;;;;18.97;28.19;100826.94;16116873;19;129324;-75
2024/01/16 12:06:38;;;;;;;8.60;1.95;;;;;;;19.08;28.48;100812.16;16127843;19;130340;-75
2024/01/16 12:12:01;;;;;;;5.28;2.10;;;;;;;19.38;28.18;100799.09;16125869;19;128969;-75
2024/01/16 12:17:24;;;;;;;10.55;1.65;;;;;;;19.80;27.88;100794.94;16120437;19;133733;-76
2024/01/16 12:22:53;;;;;;;7.65;1.70;;;;;;;20.26;27.96;100792.75;16125619;19;129471;-75
2024/01/16 12:28:19;;;;;;;7.35;1.70;;;;;;;20.68;27.47;100782.03;16126747;19;130682;-76
2024/01/16 12:34:05;;;;;;;5.15;1.50;;;;;;;21.04;27.47;100779.59;16120541;19;129640;-75
2024/01/16 12:39:28;;;;;;;7.63;1.30;;;;;;;21.18;27.07;100774.41;16126178;19;133331;-75
2024/01/16 12:44:50;;;;;;;5.53;2.10;;;;;;;21.20;27.01;100770.25;16150413;19;129261;-74
2024/01/16 12:50:22;;;;;;;3.40;1.52;;;;;;;21.18;27.23;100758.53;16193268;19;129794;-77
2024/01/16 12:55:45;;;;;;;4.35;1.48;;;;;;;21.13;27.09;100766.00;16187718;19;129649;-75
2024/01/16 13:01:29;;;;;;;4.80;1.63;;;;;;;21.02;27.21;100763.16;16189861;19;130854;-75
2024/01/16 13:07:02;;;;;;;6.43;1.45;;;;;;;20.89;27.35;100760.84;16190962;19;130603;-74
2024/01/16 13:12:26;;;;;;;3.17;1.40;;;;;;;20.75;27.67;100752.94;16187729;19;129189;-74
2024/01/16 13:17:48;;;;;;;6.90;1.63;;;;;;;20.64;27.56;100733.63;16181505;19;130164;-74
2024/01/16 13:23:13;;;;;;;4.10;1.10;;;;;;;20.49;27.90;100724.06;16172282;19;128888;-73
2024/01/16 13:28:35;;;;;;;4.03;1.50;;;;;;;20.39;27.91;100721.19;16178876;19;130146;-75
2024/01/16 13:33:58;;;;;;;4.57;1.20;;;;;;;20.33;28.24;100717.53;16174773;19;130947;-76
2024/01/16 13:39:20;;;;;;;6.32;1.45;;;;;;;20.24;28.61;100706.03;16179511;19;129600;-75
2024/01/16 13:44:42;;;;;;;11.38;2.15;;;;;;;20.17;28.57;100716.53;16169975;19;131081;-76
2024/01/16 13:50:04;;;;;;;6.93;1.30;;;;;;;20.08;28.03;100712.53;16180923;19;129626;-74
2024/01/16 13:55:26;;;;;;;6.55;1.35;;;;;;;19.98;27.95;100702.97;16176929;19;130588;-67
2024/01/16 14:00:48;;;;;;;11.35;1.60;;;;;;;19.87;27.82;100695.63;16109233;19;132052;-69
2024/01/16 14:06:10;;;;;;;5.57;1.20;;;;;;;19.78;27.83;100691.66;16114524;19;130508;-67
2024/01/16 14:11:32;;;;;;;4.60;1.40;;;;;;;19.68;28.11;100681.25;16112416;19;129624;-67
2024/01/16 14:16:54;;;;;;;8.70;1.60;;;;;;;19.60;28.13;100674.22;16114362;19;129672;-66
2024/01/16 14:22:22;;;;;;;4.35;1.60;;;;;;;19.53;28.08;100659.72;16114987;19;129468;-66
2024/01/16 14:27:48;;;;;;;3.63;1.08;;;;;;;19.61;28.33;100652.88;16113785;19;130296;-67
2024/01/16 14:33:10;;;;;;;6.80;1.20;;;;;;;19.75;28.21;100653.31;16112956;19;129802;-67
2024/01/16 14:38:32;;;;;;;5.82;1.30;;;;;;;19.87;28.36;100645.66;16113249;19;129656;-67
2024/01/16 14:43:54;;;;;;;5.22;1.10;;;;;;;20.03;28.18;100648.63;16112155;19;129834;-67
2024/01/16 14:49:16;;;;;;;4.13;1.10;;;;;;;20.16;28.07;100642.66;16109362;19;130426;-67
2024/01/16 14:54:39;;;;;;;6.68;1.20;;;;;;;20.28;27.90;100646.09;16118081;19;129619;-67
2024/01/16 15:00:01;;;;;;;2.40;1.00;;;;;;;20.37;27.92;100632.53;16118418;19;131060;-67
2024/01/16 15:05:24;;;;;;;2.08;0.80;;;;;;;20.39;27.60;100635.88;16112227;19;129926;-67
2024/01/16 15:10:46;;;;;;;3.70;1.20;;;;;;;20.38;27.90;100639.75;16115370;19;130038;-67
2024/01/16 15:16:08;;;;;;;4.15;1.08;;;;;;;20.33;27.88;100639.75;16114388;19;129586;-67
2024/01/16 15:21:30;;;;;;;2.20;0.80;;;;;;;20.26;27.92;100625.22;16117377;19;129483;-66
2024/01/16 15:26:53;;;;;;;3.00;1.08;;;;;;;20.16;27.66;100636.25;16111409;19;130355;-66
2024/01/16 15:32:15;;;;;;;2.53;1.00;;;;;;;20.07;27.90;100635.88;16103028;19;131209;-66
2024/01/16 15:37:37;;;;;;;2.42;0.93;;;;;;;19.97;28.27;100634.66;16107844;19;129400;-67
2024/01/16 15:42:59;;;;;;;3.92;0.70;;;;;;;19.89;27.79;100637.06;16112531;19;129345;-74
2024/01/16 15:48:21;;;;;;;1.92;0.80;;;;;;;19.84;27.94;100643.41;16107584;19;129820;-70
2024/01/16 15:53:43;;;;;;;7.68;1.40;;;;;;;19.79;28.21;100651.69;16103697;19;132151;-71
2024/01/16 15:59:05;;;;;;;5.88;0.80;;;;;;;19.74;28.08;100651.63;16105221;19;130736;-72
2024/01/16 16:04:27;;;;;;;7.72;1.00;;;;;;;19.69;27.62;100678.22;16102679;19;130899;-70
2024/01/16 16:09:49;;;;;;;2.95;1.00;;;;;;;19.63;27.94;100673.72;16102629;19;130952;-70
2024/01/16 16:15:11;;;;;;;4.32;1.02;;;;;;;19.59;27.67;100669.78;16110773;19;129628;-73
2024/01/16 16:20:36;;;;;;;3.45;1.05;;;;;;;19.55;27.91;100659.44;16105378;19;130146;-70
2024/01/16 16:25:58;;;;;;;9.33;1.13;;;;;;;19.48;28.24;100659.66;16107547;19;131176;-71
2024/01/16 16:31:20;;;;;;;7.22;1.50;;;;;;;19.42;28.01;100652.38;16106041;19;131320;-70
2024/01/16 16:36:42;;;;;;;5.40;1.20;;;;;;;19.33;27.66;100649.22;16106370;19;130339;-73
2024/01/16 16:42:04;;;;;;;6.70;1.30;;;;;;;19.29;27.64;100646.13;16108494;19;132184;-72
2024/01/16 16:47:27;;;;;;;4.57;1.30;;;;;;;19.33;27.70;100647.25;16115654;19;129564;-71
2024/01/16 16:52:49;;;;;;;6.20;0.90;;;;;;;19.45;27.67;100632.41;16118807;19;129922;-71
2024/01/16 16:58:12;;;;;;;7.32;1.38;;;;;;;19.60;27.24;100621.50;16117529;19;129587;-72
2024/01/16 17:03:35;;;;;;;6.80;1.77;;;;;;;19.77;27.41;100612.25;16121684;19;129873;-72
2024/01/16 17:08:58;;;;;;;8.98;1.38;;;;;;;19.92;27.38;100606.84;16127726;19;131688;-71
2024/01/16 17:14:20;;;;;;;3.40;1.33;;;;;;;20.07;27.34;100610.88;16128515;19;128986;-71
2024/01/16 17:19:42;;;;;;;4.68;1.30;;;;;;;20.18;27.32;100607.13;16123390;19;129827;-71
2024/01/16 17:25:05;;;;;;;5.63;1.50;;;;;;;20.26;27.16;100603.00;16119375;19;129425;-73
2024/01/16 17:30:27;;;;;;;6.70;1.80;;;;;;;20.26;27.08;100598.28;16120733;19;134095;-71
2024/01/16 17:35:50;;;;;;;5.18;1.80;;;;;;;20.24;27.46;100606.06;16117308;19;130351;-71
2024/01/16 17:41:12;;;;;;;4.82;1.73;;;;;;;20.21;28.26;100595.47;16130000;19;130857;-70
2024/01/16 17:46:34;;;;;;;14.30;2.33;;;;;;;20.29;28.07;100599.69;16128830;19;131599;-74
2024/01/16 17:51:56;;;;;;;8.15;1.95;;;;;;;20.42;28.03;100584.53;16132225;19;129964;-72
2024/01/16 17:57:18;;;;;;;10.60;1.88;;;;;;;20.55;28.15;100572.94;16140174;19;129554;-72
2024/01/16 18:02:40;;;;;;;14.18;2.25;;;;;;;20.69;28.15;100561.31;16138643;19;130251;-72
2024/01/16 18:08:02;;;;;;;15.25;1.90;;;;;;;20.80;28.39;100551.97;16135737;19;129902;-70
2024/01/16 18:13:24;;;;;;;9.25;1.63;;;;;;;20.86;28.24;100545.34;16133611;19;129685;-65
2024/01/16 18:18:46;;;;;;;14.07;2.05;;;;;;;20.90;28.20;100534.50;16140304;19;129437;-73
2024/01/16 18:24:11;;;;;;;12.60;2.00;;;;;;;20.88;28.64;100534.78;16135610;19;130986;-73
2024/01/16 18:29:36;;;;;;;5.87;1.93;;;;;;;20.85;28.48;100520.59;16121347;19;129670;-83
2024/01/16 18:34:59;;;;;;;5.47;1.60;;;;;;;20.79;28.61;100519.75;16123646;19;129796;-74
2024/01/16 18:40:23;;;;;;;7.68;1.80;;;;;;;20.77;28.81;100521.94;16123364;19;130215;-74
2024/01/16 18:45:45;;;;;;;13.93;2.20;;;;;;;20.78;28.81;100523.63;16121592;19;130748;-77
2024/01/16 18:51:07;;;;;;;12.90;1.83;;;;;;;20.89;28.81;100533.69;16125929;19;129957;-77
2024/01/16 18:56:29;;;;;;;5.93;1.40;;;;;;;21.13;28.85;100516.53;16117301;19;130896;-76
2024/01/16 19:01:50;;;;;;;12.52;1.95;;;;;;;21.44;28.10;100513.78;16117849;19;129624;-77
2024/01/16 19:07:17;;;;;;;11.30;1.55;;;;;;;21.79;27.96;100511.38;16120371;19;130003;-73
2024/01/16 19:12:43;;;;;;;13.27;2.20;;;;;;;22.09;27.97;100504.94;16118089;19;129451;-72
2024/01/16 19:18:05;;;;;;;14.35;2.08;;;;;;;22.36;27.46;100492.69;16115485;19;129534;-75
2024/01/16 19:23:28;;;;;;;17.55;2.05;;;;;;;22.64;27.14;100487.56;16117308;19;134224;-76
2024/01/16 19:28:50;;;;;;;10.63;2.05;;;;;;;22.87;26.84;100486.06;16115926;19;130106;-75
2024/01/16 19:34:12;;;;;;;12.60;2.10;;;;;;;23.10;26.50;100477.34;16111507;19;129822;-77
2024/01/16 19:39:36;;;;;;;9.15;1.77;;;;;;;23.28;26.72;100473.88;16116915;19;129613;-80
2024/01/16 19:45:03;;;;;;;10.73;1.55;;;;;;;23.47;26.71;100476.81;16117631;19;129305;-72
2024/01/16 19:50:28;;;;;;;9.88;1.75;;;;;;;23.57;26.35;100477.88;16113441;19;133186;-74
2024/01/16 19:55:50;;;;;;;10.27;2.00;;;;;;;23.54;26.60;100468.09;16117213;19;130873;-75
2024/01/16 20:01:12;;;;;;;5.75;1.50;;;;;;;23.46;26.59;100474.31;16115174;19;129735;-79
2024/01/16 20:06:36;;;;;;;10.07;2.08;;;;;;;23.29;26.51;100464.38;16115514;19;130472;-78
2024/01/16 20:12:01;;;;;;;16.95;2.00;;;;;;;23.08;26.58;100458.09;16114636;19;130994;-72
2024/01/16 20:17:23;;;;;;;6.65;1.50;;;;;;;22.86;26.89;100450.09;16110473;19;130043;-73
2024/01/16 20:22:46;;;;;;;11.38;1.80;;;;;;;22.64;27.05;100440.19;16116169;19;132396;-71
2024/01/16 20:28:09;;;;;;;9.13;1.88;;;;;;;22.41;27.38;100434.13;16127060;19;135921;-73
2024/01/16 20:33:30;;;;;;;11.05;1.75;;;;;;;22.25;27.71;100429.72;16131084;19;131388;-74
2024/01/16 20:38:52;;;;;;;10.43;1.75;;;;;;;22.23;27.85;100415.25;16127700;19;129882;-76
2024/01/16 20:44:20;;;;;;;9.23;1.58;;;;;;;22.27;27.78;100416.34;16127067;19;129528;-78
2024/01/16 20:49:43;;;;;;;12.30;1.80;;;;;;;22.37;27.44;100409.88;16130703;19;129470;-73
2024/01/16 20:55:06;;;;;;;16.50;1.45;;;;;;;22.49;27.46;100385.31;16119344;19;129899;-79
2024/01/16 21:00:33;;;;;;;12.43;1.70;;;;;;;22.63;27.51;100379.97;16122639;19;130623;-71
2024/01/16 21:05:57;;;;;;;9.55;1.75;;;;;;;22.70;27.42;100363.75;16136937;19;130823;-76
2024/01/16 21:11:20;;;;;;;11.75;1.48;;;;;;;22.68;27.18;100340.88;16124690;19;131677;-77
2024/01/16 21:16:42;;;;;;;10.13;1.83;;;;;;;22.70;27.03;100335.03;16131915;19;129582;-75
2024/01/16 21:22:06;;;;;;;12.68;1.40;;;;;;;22.64;27.00;100320.28;16124329;19;129693;-75
2024/01/16 21:27:28;;;;;;;9.48;1.75;;;;;;;22.58;26.94;100316.72;16126973;19;129997;-75
2024/01/16 21:32:50;;;;;;;4.90;1.50;;;;;;;22.51;26.96;100315.34;16121536;19;130570;-75
2024/01/16 21:38:12;;;;;;;12.32;1.80;;;;;;;22.46;26.93;100309.81;16126807;19;130348;-75
2024/01/16 21:43:34;;;;;;;6.20;1.70;;;;;;;22.37;27.17;100320.72;16131821;19;130066;-75
2024/01/16 21:48:56;;;;;;;4.63;1.55;;;;;;;22.25;26.94;100310.75;16126929;19;129977;-74
2024/01/16 21:54:19;;;;;;;3.08;1.10;;;;;;;22.11;26.96;100296.56;16127418;19;131582;-75
2024/01/16 21:59:41;;;;;;;3.92;1.40;;;;;;;21.97;27.10;100293.56;16125699;19;129454;-74
2024/01/16 22:05:03;;;;;;;3.38;1.42;;;;;;;21.82;27.13;100283.31;16125740;19;134546;-75
2024/01/16 22:10:25;;;;;;;5.47;1.73;;;;;;;21.67;27.05;100275.84;16123268;19;130126;-75
2024/01/16 22:15:48;;;;;;;4.05;1.42;;;;;;;21.55;27.59;100263.34;16127163;19;129395;-74
2024/01/16 22:21:10;;;;;;;5.68;1.80;;;;;;;21.43;27.59;100263.63;16125172;19;129647;-75
2024/01/16 22:26:32;;;;;;;3.00;1.30;;;;;;;21.31;27.73;100266.72;16121783;19;129423;-75
2024/01/16 22:31:54;;;;;;;4.47;1.52;;;;;;;21.18;27.59;100274.50;16127687;19;129652;-74
2024/01/16 22:37:17;;;;;;;5.68;1.70;;;;;;;21.07;27.88;100267.28;16121915;19;130047;-75
2024/01/16 22:42:39;;;;;;;2.90;1.35;;;;;;;20.92;27.70;100264.53;16119192;19;129688;-75
2024/01/16 22:48:05;;;;;;;5.63;1.30;;;;;;;20.74;27.85;100252.81;16123515;19;129306;-75
2024/01/16 22:53:27;;;;;;;4.68;1.73;;;;;;;20.57;28.08;100247.53;16125329;19;130881;-78
2024/01/16 22:58:49;;;;;;;4.63;1.40;;;;;;;20.43;28.27;100236.13;16124399;19;130836;-76
2024/01/16 23:04:11;;;;;;;3.17;1.60;;;;;;;20.32;27.97;100234.41;16127020;19;130294;-76
2024/01/16 23:09:33;;;;;;;2.92;1.33;;;;;;;20.22;28.13;100219.41;16118571;19;131218;-75
2024/01/16 23:14:57;;;;;;;3.78;1.30;;;;;;;20.12;28.42;100216.59;16123255;19;131669;-76
2024/01/16 23:20:20;;;;;;;2.55;1.10;;;;;;;20.03;28.50;100193.25;16123284;19;129206;-76
2024/01/16 23:25:45;;;;;;;3.47;1.48;;;;;;;19.95;28.85;100175.16;16124751;19;129565;-76
2024/01/16 23:31:08;;;;;;;4.32;1.42;;;;;;;19.88;28.68;100169.88;16123524;19;130194;-74
2024/01/16 23:36:32;;;;;;;3.67;1.05;;;;;;;19.81;28.68;100158.22;16116120;19;131983;-74
2024/01/16 23:41:56;;;;;;;2.55;1.40;;;;;;;19.74;28.43;100149.28;16113169;19;129655;-76
2024/01/16 23:47:18;;;;;;;3.22;1.30;;;;;;;19.67;28.79;100142.06;16111564;19;131545;-74
2024/01/16 23:52:40;;;;;;;4.00;1.67;;;;;;;19.58;28.80;100115.94;16114963;19;130269;-74
2024/01/16 23:58:02;;;;;;;3.40;1.48;;;;;;;19.52;28.82;100108.72;16129479;19;130018;-74
